sensor_id;sensor_type;location;lat;lon;timestamp;temperature;humidity
19192;DHT22;9728;48.194;16.346;2022-09-17T00:04:35;24.40;42.90
19192;DHT22;9728;48.194;16.346;2022-09-17T00:09:38;24.30;43.10
19192;DHT22;9728;48.194;16.346;2022-09-17T00:14:42;24.20;43.20
19192;DHT22;9728;48.194;16.346;2022-09-17T00:19:46;24.20;43.30
19192;DHT22;9728;48.194;16.346;2022-09-17T00:24:50;24.20;43.10
19192;DHT22;9728;48.194;16.346;2022-09-17T00:29:54;24.20;43.00
19192;DHT22;9728;48.194;16.346;2022-09-17T00:34:58;24.10;42.80
19192;DHT22;9728;48.194;16.346;2022-09-17T00:40:02;24.10;43.00
19192;DHT22;9728;48.194;16.346;2022-09-17T00:45:07;24.00;43.10
19192;DHT22;9728;48.194;16.346;2022-09-17T00:50:14;24.00;42.70
19192;DHT22;9728;48.194;16.346;2022-09-17T00:55:22;23.90;42.60
19192;DHT22;9728;48.194;16.346;2022-09-17T01:00:27;23.90;42.70
19192;DHT22;9728;48.194;16.346;2022-09-17T01:05:42;23.90;43.00
19192;DHT22;9728;48.194;16.346;2022-09-17T01:10:58;23.80;42.50
19192;DHT22;9728;48.194;16.346;2022-09-17T01:16:15;23.70;42.50
19192;DHT22;9728;48.194;16.346;2022-09-17T01:21:42;23.60;42.20
19192;DHT22;9728;48.194;16.346;2022-09-17T01:32:31;23.40;43.10
19192;DHT22;9728;48.194;16.346;2022-09-17T01:37:44;23.30;43.30
19192;DHT22;9728;48.194;16.346;2022-09-17T01:42:53;23.30;43.10
19192;DHT22;9728;48.194;16.346;2022-09-17T01:48:03;23.20;43.50
19192;DHT22;9728;48.194;16.346;2022-09-17T01:53:09;23.20;44.00
19192;DHT22;9728;48.194;16.346;2022-09-17T01:58:17;23.20;43.90
19192;DHT22;9728;48.194;16.346;2022-09-17T02:03:24;23.20;44.20
19192;DHT22;9728;48.194;16.346;2022-09-17T02:08:35;23.30;43.90
19192;DHT22;9728;48.194;16.346;2022-09-17T02:13:42;23.30;44.30
19192;DHT22;9728;48.194;16.346;2022-09-17T02:18:50;23.30;43.30
19192;DHT22;9728;48.194;16.346;2022-09-17T02:24:05;23.20;43.10
19192;DHT22;9728;48.194;16.346;2022-09-17T02:29:12;23.20;43.80
19192;DHT22;9728;48.194;16.346;2022-09-17T02:34:17;23.20;44.00
19192;DHT22;9728;48.194;16.346;2022-09-17T02:39:22;23.20;44.90
19192;DHT22;9728;48.194;16.346;2022-09-17T02:44:32;23.20;44.10
19192;DHT22;9728;48.194;16.346;2022-09-17T02:49:54;23.30;44.10
19192;DHT22;9728;48.194;16.346;2022-09-17T02:55:09;23.30;44.10
19192;DHT22;9728;48.194;16.346;2022-09-17T03:00:16;23.40;44.10
19192;DHT22;9728;48.194;16.346;2022-09-17T03:05:23;23.40;43.40
19192;DHT22;9728;48.194;16.346;2022-09-17T03:10:27;23.40;43.00
19192;DHT22;9728;48.194;16.346;2022-09-17T03:15:31;23.30;42.90
19192;DHT22;9728;48.194;16.346;2022-09-17T03:20:35;23.30;43.20
19192;DHT22;9728;48.194;16.346;2022-09-17T03:25:38;23.20;42.90
19192;DHT22;9728;48.194;16.346;2022-09-17T03:30:45;23.10;43.30
19192;DHT22;9728;48.194;16.346;2022-09-17T03:35:49;23.00;43.50
19192;DHT22;9728;48.194;16.346;2022-09-17T03:40:57;23.00;43.80
19192;DHT22;9728;48.194;16.346;2022-09-17T03:46:00;23.00;43.50
19192;DHT22;9728;48.194;16.346;2022-09-17T03:51:05;23.00;43.60
19192;DHT22;9728;48.194;16.346;2022-09-17T03:56:08;22.90;43.80
19192;DHT22;9728;48.194;16.346;2022-09-17T04:01:12;22.90;43.90
19192;DHT22;9728;48.194;16.346;2022-09-17T04:06:17;22.90;44.20
19192;DHT22;9728;48.194;16.346;2022-09-17T04:11:20;22.90;44.00
19192;DHT22;9728;48.194;16.346;2022-09-17T04:16:23;22.90;43.90
19192;DHT22;9728;48.194;16.346;2022-09-17T04:21:28;23.00;44.00
19192;DHT22;9728;48.194;16.346;2022-09-17T04:26:31;23.00;44.10
19192;DHT22;9728;48.194;16.346;2022-09-17T04:31:35;23.10;44.10
19192;DHT22;9728;48.194;16.346;2022-09-17T04:36:40;23.10;44.10
19192;DHT22;9728;48.194;16.346;2022-09-17T04:41:43;23.20;44.30
19192;DHT22;9728;48.194;16.346;2022-09-17T04:46:46;23.20;44.30
19192;DHT22;9728;48.194;16.346;2022-09-17T04:51:51;23.30;44.30
19192;DHT22;9728;48.194;16.346;2022-09-17T04:56:54;23.30;44.30
19192;DHT22;9728;48.194;16.346;2022-09-17T05:01:57;23.40;44.20
19192;DHT22;9728;48.194;16.346;2022-09-17T05:07:02;23.50;44.20
19192;DHT22;9728;48.194;16.346;2022-09-17T05:12:06;23.60;44.20
19192;DHT22;9728;48.194;16.346;2022-09-17T05:17:09;23.60;43.70
19192;DHT22;9728;48.194;16.346;2022-09-17T05:22:14;23.60;43.90
19192;DHT22;9728;48.194;16.346;2022-09-17T05:27:22;23.60;43.90
19192;DHT22;9728;48.194;16.346;2022-09-17T05:32:25;23.70;43.70
19192;DHT22;9728;48.194;16.346;2022-09-17T05:37:30;23.70;43.60
19192;DHT22;9728;48.194;16.346;2022-09-17T05:42:33;23.70;43.80
19192;DHT22;9728;48.194;16.346;2022-09-17T05:47:37;23.70;43.50
19192;DHT22;9728;48.194;16.346;2022-09-17T05:52:41;23.70;43.70
19192;DHT22;9728;48.194;16.346;2022-09-17T05:57:44;23.80;43.70
19192;DHT22;9728;48.194;16.346;2022-09-17T06:02:53;23.90;43.50
19192;DHT22;9728;48.194;16.346;2022-09-17T06:07:58;24.00;43.20
19192;DHT22;9728;48.194;16.346;2022-09-17T06:13:01;23.90;43.30
19192;DHT22;9728;48.194;16.346;2022-09-17T06:18:05;24.00;43.30
19192;DHT22;9728;48.194;16.346;2022-09-17T06:23:09;24.00;43.30
19192;DHT22;9728;48.194;16.346;2022-09-17T06:28:16;23.90;43.00
19192;DHT22;9728;48.194;16.346;2022-09-17T06:33:20;23.80;43.80
19192;DHT22;9728;48.194;16.346;2022-09-17T06:38:24;23.90;44.20
19192;DHT22;9728;48.194;16.346;2022-09-17T06:43:28;24.00;44.40
19192;DHT22;9728;48.194;16.346;2022-09-17T06:48:33;24.20;44.30
19192;DHT22;9728;48.194;16.346;2022-09-17T06:53:38;24.40;44.00
19192;DHT22;9728;48.194;16.346;2022-09-17T06:58:41;24.50;43.50
19192;DHT22;9728;48.194;16.346;2022-09-17T07:03:45;24.60;43.20
19192;DHT22;9728;48.194;16.346;2022-09-17T07:08:51;24.70;42.60
19192;DHT22;9728;48.194;16.346;2022-09-17T07:13:54;24.70;42.10
19192;DHT22;9728;48.194;16.346;2022-09-17T07:18:59;24.60;41.70
19192;DHT22;9728;48.194;16.346;2022-09-17T07:24:04;24.40;41.40
19192;DHT22;9728;48.194;16.346;2022-09-17T07:29:07;24.20;41.70
19192;DHT22;9728;48.194;16.346;2022-09-17T07:34:10;24.00;41.90
19192;DHT22;9728;48.194;16.346;2022-09-17T07:39:15;23.80;42.10
19192;DHT22;9728;48.194;16.346;2022-09-17T07:44:18;23.70;42.10
19192;DHT22;9728;48.194;16.346;2022-09-17T07:49:23;23.60;42.00
19192;DHT22;9728;48.194;16.346;2022-09-17T07:54:28;23.60;44.00
19192;DHT22;9728;48.194;16.346;2022-09-17T07:59:31;23.50;43.50
19192;DHT22;9728;48.194;16.346;2022-09-17T08:04:35;23.50;43.20
19192;DHT22;9728;48.194;16.346;2022-09-17T08:09:39;23.50;43.10
19192;DHT22;9728;48.194;16.346;2022-09-17T08:14:43;23.40;42.60
19192;DHT22;9728;48.194;16.346;2022-09-17T08:19:46;23.40;42.40
19192;DHT22;9728;48.194;16.346;2022-09-17T08:24:51;23.40;42.20
19192;DHT22;9728;48.194;16.346;2022-09-17T08:29:54;23.20;42.20
19192;DHT22;9728;48.194;16.346;2022-09-17T08:34:57;23.00;42.40
19192;DHT22;9728;48.194;16.346;2022-09-17T08:40:02;22.90;42.50
19192;DHT22;9728;48.194;16.346;2022-09-17T08:45:10;22.80;43.90
19192;DHT22;9728;48.194;16.346;2022-09-17T08:50:17;22.70;43.00
19192;DHT22;9728;48.194;16.346;2022-09-17T08:55:42;22.60;42.90
19192;DHT22;9728;48.194;16.346;2022-09-17T09:00:50;22.60;43.60
19192;DHT22;9728;48.194;16.346;2022-09-17T09:05:57;22.60;42.80
19192;DHT22;9728;48.194;16.346;2022-09-17T09:11:05;22.50;43.10
19192;DHT22;9728;48.194;16.346;2022-09-17T09:16:15;22.40;43.40
19192;DHT22;9728;48.194;16.346;2022-09-17T09:21:25;22.40;43.30
19192;DHT22;9728;48.194;16.346;2022-09-17T09:26:39;22.40;43.60
19192;DHT22;9728;48.194;16.346;2022-09-17T09:32:07;22.40;44.50
19192;DHT22;9728;48.194;16.346;2022-09-17T09:37:22;22.40;43.80
19192;DHT22;9728;48.194;16.346;2022-09-17T09:42:29;22.40;44.70
19192;DHT22;9728;48.194;16.346;2022-09-17T09:47:48;22.40;44.10
19192;DHT22;9728;48.194;16.346;2022-09-17T09:53:02;22.50;44.10
19192;DHT22;9728;48.194;16.346;2022-09-17T09:58:16;22.50;43.80
19192;DHT22;9728;48.194;16.346;2022-09-17T10:03:25;22.50;43.50
19192;DHT22;9728;48.194;16.346;2022-09-17T10:08:31;22.50;44.50
19192;DHT22;9728;48.194;16.346;2022-09-17T10:13:37;22.50;44.20
19192;DHT22;9728;48.194;16.346;2022-09-17T10:18:42;22.60;44.20
19192;DHT22;9728;48.194;16.346;2022-09-17T10:23:45;22.60;44.80
19192;DHT22;9728;48.194;16.346;2022-09-17T10:28:53;22.70;43.20
19192;DHT22;9728;48.194;16.346;2022-09-17T10:34:00;22.60;43.20
19192;DHT22;9728;48.194;16.346;2022-09-17T10:39:18;22.60;43.90
19192;DHT22;9728;48.194;16.346;2022-09-17T10:44:24;22.50;44.20
19192;DHT22;9728;48.194;16.346;2022-09-17T10:49:35;22.50;45.10
19192;DHT22;9728;48.194;16.346;2022-09-17T11:00:23;22.90;45.40
19192;DHT22;9728;48.194;16.346;2022-09-17T11:05:44;23.10;44.90
19192;DHT22;9728;48.194;16.346;2022-09-17T11:10:55;23.30;45.00
19192;DHT22;9728;48.194;16.346;2022-09-17T11:16:21;23.60;44.20
19192;DHT22;9728;48.194;16.346;2022-09-17T11:21:39;23.70;43.30
19192;DHT22;9728;48.194;16.346;2022-09-17T11:26:53;23.90;42.50
19192;DHT22;9728;48.194;16.346;2022-09-17T11:32:09;23.90;41.80
19192;DHT22;9728;48.194;16.346;2022-09-17T11:37:20;24.00;42.60
19192;DHT22;9728;48.194;16.346;2022-09-17T11:42:29;24.00;42.50
19192;DHT22;9728;48.194;16.346;2022-09-17T11:47:36;24.20;43.10
19192;DHT22;9728;48.194;16.346;2022-09-17T11:52:45;24.30;42.50
19192;DHT22;9728;48.194;16.346;2022-09-17T11:57:53;24.40;41.40
19192;DHT22;9728;48.194;16.346;2022-09-17T12:03:04;24.40;42.20
19192;DHT22;9728;48.194;16.346;2022-09-17T12:08:15;24.40;40.40
19192;DHT22;9728;48.194;16.346;2022-09-17T12:13:29;24.30;39.70
19192;DHT22;9728;48.194;16.346;2022-09-17T12:18:48;24.20;39.10
19192;DHT22;9728;48.194;16.346;2022-09-17T12:23:56;24.00;38.70
19192;DHT22;9728;48.194;16.346;2022-09-17T12:29:05;23.70;39.10
19192;DHT22;9728;48.194;16.346;2022-09-17T12:34:25;23.40;39.10
19192;DHT22;9728;48.194;16.346;2022-09-17T12:39:39;23.10;39.90
19192;DHT22;9728;48.194;16.346;2022-09-17T12:45:05;22.90;39.50
19192;DHT22;9728;48.194;16.346;2022-09-17T12:50:18;22.60;39.70
19192;DHT22;9728;48.194;16.346;2022-09-17T12:55:34;22.50;40.00
19192;DHT22;9728;48.194;16.346;2022-09-17T13:00:43;22.40;39.90
19192;DHT22;9728;48.194;16.346;2022-09-17T13:11:40;22.10;40.00
19192;DHT22;9728;48.194;16.346;2022-09-17T13:16:48;21.90;40.30
19192;DHT22;9728;48.194;16.346;2022-09-17T13:22:00;21.80;40.70
19192;DHT22;9728;48.194;16.346;2022-09-17T13:27:19;21.70;40.70
19192;DHT22;9728;48.194;16.346;2022-09-17T13:32:50;21.60;40.80
19192;DHT22;9728;48.194;16.346;2022-09-17T13:37:56;21.50;40.80
19192;DHT22;9728;48.194;16.346;2022-09-17T13:43:07;21.50;41.00
19192;DHT22;9728;48.194;16.346;2022-09-17T13:48:19;21.40;44.70
19192;DHT22;9728;48.194;16.346;2022-09-17T13:53:25;21.50;45.30
19192;DHT22;9728;48.194;16.346;2022-09-17T13:58:30;21.80;45.50
19192;DHT22;9728;48.194;16.346;2022-09-17T14:03:50;22.20;46.20
19192;DHT22;9728;48.194;16.346;2022-09-17T14:08:55;22.70;46.20
19192;DHT22;9728;48.194;16.346;2022-09-17T14:14:40;23.30;43.80
19192;DHT22;9728;48.194;16.346;2022-09-17T14:19:48;23.60;41.50
19192;DHT22;9728;48.194;16.346;2022-09-17T14:24:56;23.70;40.80
19192;DHT22;9728;48.194;16.346;2022-09-17T14:30:10;23.70;40.20
19192;DHT22;9728;48.194;16.346;2022-09-17T14:35:18;23.60;39.60
19192;DHT22;9728;48.194;16.346;2022-09-17T14:40:25;23.40;39.60
19192;DHT22;9728;48.194;16.346;2022-09-17T14:45:31;23.20;39.50
19192;DHT22;9728;48.194;16.346;2022-09-17T14:50:35;23.00;39.70
19192;DHT22;9728;48.194;16.346;2022-09-17T14:55:40;22.80;39.80
19192;DHT22;9728;48.194;16.346;2022-09-17T15:00:50;22.60;39.80
19192;DHT22;9728;48.194;16.346;2022-09-17T15:05:54;22.50;39.70
19192;DHT22;9728;48.194;16.346;2022-09-17T15:11:01;22.40;39.90
19192;DHT22;9728;48.194;16.346;2022-09-17T15:16:12;22.30;39.90
19192;DHT22;9728;48.194;16.346;2022-09-17T15:21:23;22.10;40.00
19192;DHT22;9728;48.194;16.346;2022-09-17T15:26:34;22.00;40.20
19192;DHT22;9728;48.194;16.346;2022-09-17T15:31:39;21.80;40.20
19192;DHT22;9728;48.194;16.346;2022-09-17T15:37:04;21.60;40.50
19192;DHT22;9728;48.194;16.346;2022-09-17T15:42:19;21.40;40.70
19192;DHT22;9728;48.194;16.346;2022-09-17T15:47:51;21.20;41.10
19192;DHT22;9728;48.194;16.346;2022-09-17T15:53:19;21.10;41.30
19192;DHT22;9728;48.194;16.346;2022-09-17T15:58:27;21.00;41.50
19192;DHT22;9728;48.194;16.346;2022-09-17T16:04:00;21.00;41.60
19192;DHT22;9728;48.194;16.346;2022-09-17T16:09:38;20.90;41.70
19192;DHT22;9728;48.194;16.346;2022-09-17T16:14:44;20.80;41.90
19192;DHT22;9728;48.194;16.346;2022-09-17T16:19:48;20.70;42.10
19192;DHT22;9728;48.194;16.346;2022-09-17T16:24:51;20.60;42.30
19192;DHT22;9728;48.194;16.346;2022-09-17T16:30:03;20.60;42.40
19192;DHT22;9728;48.194;16.346;2022-09-17T16:35:10;20.50;42.50
19192;DHT22;9728;48.194;16.346;2022-09-17T16:40:19;20.40;42.70
19192;DHT22;9728;48.194;16.346;2022-09-17T16:45:24;20.40;42.80
19192;DHT22;9728;48.194;16.346;2022-09-17T16:50:30;20.30;43.10
19192;DHT22;9728;48.194;16.346;2022-09-17T16:55:33;20.30;43.20
19192;DHT22;9728;48.194;16.346;2022-09-17T17:00:40;20.30;43.40
19192;DHT22;9728;48.194;16.346;2022-09-17T17:05:44;20.30;43.50
19192;DHT22;9728;48.194;16.346;2022-09-17T17:10:48;20.30;43.50
19192;DHT22;9728;48.194;16.346;2022-09-17T17:15:53;20.30;43.70
19192;DHT22;9728;48.194;16.346;2022-09-17T17:21:03;20.20;43.90
19192;DHT22;9728;48.194;16.346;2022-09-17T17:26:06;20.20;44.60
19192;DHT22;9728;48.194;16.346;2022-09-17T17:31:11;20.10;44.10
19192;DHT22;9728;48.194;16.346;2022-09-17T17:36:14;20.00;44.50
19192;DHT22;9728;48.194;16.346;2022-09-17T17:41:18;20.00;44.40
19192;DHT22;9728;48.194;16.346;2022-09-17T17:46:25;19.90;44.50
19192;DHT22;9728;48.194;16.346;2022-09-17T17:51:28;19.80;44.90
19192;DHT22;9728;48.194;16.346;2022-09-17T17:56:31;19.80;44.80
19192;DHT22;9728;48.194;16.346;2022-09-17T18:01:36;19.70;44.80
19192;DHT22;9728;48.194;16.346;2022-09-17T18:06:40;19.70;45.00
19192;DHT22;9728;48.194;16.346;2022-09-17T18:11:43;19.70;44.90
19192;DHT22;9728;48.194;16.346;2022-09-17T18:16:48;19.70;44.90
19192;DHT22;9728;48.194;16.346;2022-09-17T18:21:53;19.60;45.00
19192;DHT22;9728;48.194;16.346;2022-09-17T18:26:56;19.60;45.00
19192;DHT22;9728;48.194;16.346;2022-09-17T18:32:01;19.60;44.90
19192;DHT22;9728;48.194;16.346;2022-09-17T18:37:04;19.50;45.00
19192;DHT22;9728;48.194;16.346;2022-09-17T18:42:08;19.50;45.00
19192;DHT22;9728;48.194;16.346;2022-09-17T18:47:13;19.40;44.90
19192;DHT22;9728;48.194;16.346;2022-09-17T18:52:16;19.30;45.20
19192;DHT22;9728;48.194;16.346;2022-09-17T18:57:19;19.30;45.20
19192;DHT22;9728;48.194;16.346;2022-09-17T19:02:25;19.20;45.30
19192;DHT22;9728;48.194;16.346;2022-09-17T19:07:29;19.20;45.60
19192;DHT22;9728;48.194;16.346;2022-09-17T19:12:32;19.20;45.40
19192;DHT22;9728;48.194;16.346;2022-09-17T19:17:37;19.10;45.50
19192;DHT22;9728;48.194;16.346;2022-09-17T19:22:40;19.10;45.60
19192;DHT22;9728;48.194;16.346;2022-09-17T19:27:43;19.00;45.60
19192;DHT22;9728;48.194;16.346;2022-09-17T19:32:49;19.00;45.60
19192;DHT22;9728;48.194;16.346;2022-09-17T19:37:56;19.00;45.90
19192;DHT22;9728;48.194;16.346;2022-09-17T19:42:59;18.90;45.90
19192;DHT22;9728;48.194;16.346;2022-09-17T19:48:04;18.90;45.80
19192;DHT22;9728;48.194;16.346;2022-09-17T19:53:07;18.80;46.00
19192;DHT22;9728;48.194;16.346;2022-09-17T19:58:10;18.80;46.00
19192;DHT22;9728;48.194;16.346;2022-09-17T20:03:15;18.80;46.10
19192;DHT22;9728;48.194;16.346;2022-09-17T20:08:18;18.80;46.20
19192;DHT22;9728;48.194;16.346;2022-09-17T20:13:22;18.70;46.10
19192;DHT22;9728;48.194;16.346;2022-09-17T20:18:27;18.70;46.30
19192;DHT22;9728;48.194;16.346;2022-09-17T20:23:30;18.60;46.40
19192;DHT22;9728;48.194;16.346;2022-09-17T20:28:34;18.60;46.30
19192;DHT22;9728;48.194;16.346;2022-09-17T20:33:39;18.60;46.40
19192;DHT22;9728;48.194;16.346;2022-09-17T20:38:42;18.60;46.60
19192;DHT22;9728;48.194;16.346;2022-09-17T20:44:06;18.60;46.40
19192;DHT22;9728;48.194;16.346;2022-09-17T20:49:11;18.50;46.40
19192;DHT22;9728;48.194;16.346;2022-09-17T20:54:14;18.50;46.50
19192;DHT22;9728;48.194;16.346;2022-09-17T20:59:17;18.40;46.50
19192;DHT22;9728;48.194;16.346;2022-09-17T21:04:27;18.30;46.70
19192;DHT22;9728;48.194;16.346;2022-09-17T21:09:31;18.30;46.70
19192;DHT22;9728;48.194;16.346;2022-09-17T21:14:35;18.20;46.80
19192;DHT22;9728;48.194;16.346;2022-09-17T21:19:40;18.20;47.10
19192;DHT22;9728;48.194;16.346;2022-09-17T21:24:43;18.30;47.70
19192;DHT22;9728;48.194;16.346;2022-09-17T21:29:46;18.40;47.50
19192;DHT22;9728;48.194;16.346;2022-09-17T21:34:51;18.40;47.90
19192;DHT22;9728;48.194;16.346;2022-09-17T21:39:55;18.60;48.10
19192;DHT22;9728;48.194;16.346;2022-09-17T21:44:58;18.70;49.10
19192;DHT22;9728;48.194;16.346;2022-09-17T21:50:03;18.80;47.60
19192;DHT22;9728;48.194;16.346;2022-09-17T21:55:07;18.90;47.70
19192;DHT22;9728;48.194;16.346;2022-09-17T22:00:13;19.00;47.10
19192;DHT22;9728;48.194;16.346;2022-09-17T22:05:25;19.10;47.20
19192;DHT22;9728;48.194;16.346;2022-09-17T22:10:29;19.20;47.00
19192;DHT22;9728;48.194;16.346;2022-09-17T22:15:32;19.20;46.90
19192;DHT22;9728;48.194;16.346;2022-09-17T22:20:37;19.20;46.80
19192;DHT22;9728;48.194;16.346;2022-09-17T22:25:40;19.20;46.70
19192;DHT22;9728;48.194;16.346;2022-09-17T22:30:43;19.30;47.00
19192;DHT22;9728;48.194;16.346;2022-09-17T22:35:48;19.30;47.00
19192;DHT22;9728;48.194;16.346;2022-09-17T22:40:51;19.30;46.80
19192;DHT22;9728;48.194;16.346;2022-09-17T22:45:55;19.30;46.70
19192;DHT22;9728;48.194;16.346;2022-09-17T22:51:00;19.30;46.70
19192;DHT22;9728;48.194;16.346;2022-09-17T22:56:04;19.20;46.70
19192;DHT22;9728;48.194;16.346;2022-09-17T23:01:10;19.20;46.60
19192;DHT22;9728;48.194;16.346;2022-09-17T23:06:18;19.20;46.70
19192;DHT22;9728;48.194;16.346;2022-09-17T23:11:24;19.20;46.90
19192;DHT22;9728;48.194;16.346;2022-09-17T23:16:33;19.20;47.40
19192;DHT22;9728;48.194;16.346;2022-09-17T23:21:38;19.30;47.80
19192;DHT22;9728;48.194;16.346;2022-09-17T23:26:42;19.40;47.30
19192;DHT22;9728;48.194;16.346;2022-09-17T23:31:45;19.50;47.50
19192;DHT22;9728;48.194;16.346;2022-09-17T23:36:49;19.60;47.80
19192;DHT22;9728;48.194;16.346;2022-09-17T23:41:53;19.70;47.50
19192;DHT22;9728;48.194;16.346;2022-09-17T23:46:56;19.80;47.40
19192;DHT22;9728;48.194;16.346;2022-09-17T23:52:01;20.00;46.90
19192;DHT22;9728;48.194;16.346;2022-09-17T23:57:04;20.10;46.60
